sensor_id;sensor_type;location;lat;lon;timestamp;P1;durP1;ratioP1;P2;durP2;ratioP2
80179;SDS011;69505;52.134;5.438;2023-07-31T00:01:12;2.70;;;0.68;;
80179;SDS011;69505;52.134;5.438;2023-07-31T00:03:39;2.45;;;0.68;;
80179;SDS011;69505;52.134;5.438;2023-07-31T00:06:06;4.85;;;0.90;;
80179;SDS011;69505;52.134;5.438;2023-07-31T00:08:32;3.28;;;0.68;;
80179;SDS011;69505;52.134;5.438;2023-07-31T00:10:59;11.38;;;1.38;;
80179;SDS011;69505;52.134;5.438;2023-07-31T00:13:25;4.63;;;1.00;;
80179;SDS011;69505;52.134;5.438;2023-07-31T00:15:52;4.32;;;0.68;;
80179;SDS011;69505;52.134;5.438;2023-07-31T00:18:18;1.92;;;0.80;;
80179;SDS011;69505;52.134;5.438;2023-07-31T00:20:45;2.22;;;0.70;;
80179;SDS011;69505;52.134;5.438;2023-07-31T00:23:12;1.88;;;0.68;;
80179;SDS011;69505;52.134;5.438;2023-07-31T00:25:38;1.60;;;0.60;;
80179;SDS011;69505;52.134;5.438;2023-07-31T00:28:05;1.80;;;0.77;;
80179;SDS011;69505;52.134;5.438;2023-07-31T00:30:32;3.95;;;0.73;;
80179;SDS011;69505;52.134;5.438;2023-07-31T00:32:58;1.77;;;1.10;;
80179;SDS011;69505;52.134;5.438;2023-07-31T00:35:25;2.45;;;1.27;;
80179;SDS011;69505;52.134;5.438;2023-07-31T00:37:51;4.18;;;1.55;;
80179;SDS011;69505;52.134;5.438;2023-07-31T00:40:18;3.92;;;1.58;;
80179;SDS011;69505;52.134;5.438;2023-07-31T00:42:44;6.95;;;2.00;;
80179;SDS011;69505;52.134;5.438;2023-07-31T00:45:11;5.10;;;1.90;;
80179;SDS011;69505;52.134;5.438;2023-07-31T00:47:38;7.30;;;2.53;;
80179;SDS011;69505;52.134;5.438;2023-07-31T00:50:05;9.88;;;2.60;;
80179;SDS011;69505;52.134;5.438;2023-07-31T00:52:33;13.10;;;2.72;;
80179;SDS011;69505;52.134;5.438;2023-07-31T00:54:59;16.95;;;3.60;;
80179;SDS011;69505;52.134;5.438;2023-07-31T00:57:26;21.70;;;4.32;;
80179;SDS011;69505;52.134;5.438;2023-07-31T00:59:53;22.33;;;3.80;;
80179;SDS011;69505;52.134;5.438;2023-07-31T01:02:19;16.02;;;3.75;;
80179;SDS011;69505;52.134;5.438;2023-07-31T01:04:46;18.58;;;3.65;;
80179;SDS011;69505;52.134;5.438;2023-07-31T01:12:38;22.63;;;4.15;;
80179;SDS011;69505;52.134;5.438;2023-07-31T01:15:08;17.80;;;3.95;;
80179;SDS011;69505;52.134;5.438;2023-07-31T01:17:41;18.02;;;3.88;;
80179;SDS011;69505;52.134;5.438;2023-07-31T01:28:19;6.70;;;3.00;;
80179;SDS011;69505;52.134;5.438;2023-07-31T01:30:50;10.63;;;2.42;;
80179;SDS011;69505;52.134;5.438;2023-07-31T01:33:17;6.90;;;2.45;;
80179;SDS011;69505;52.134;5.438;2023-07-31T01:35:44;7.53;;;2.47;;
80179;SDS011;69505;52.134;5.438;2023-07-31T01:38:12;8.25;;;2.15;;
80179;SDS011;69505;52.134;5.438;2023-07-31T01:40:41;6.43;;;1.90;;
80179;SDS011;69505;52.134;5.438;2023-07-31T01:43:08;6.97;;;1.98;;
80179;SDS011;69505;52.134;5.438;2023-07-31T01:45:34;7.03;;;2.53;;
80179;SDS011;69505;52.134;5.438;2023-07-31T01:48:01;14.30;;;3.00;;
80179;SDS011;69505;52.134;5.438;2023-07-31T01:50:28;13.95;;;3.10;;
80179;SDS011;69505;52.134;5.438;2023-07-31T01:52:54;11.68;;;2.80;;
80179;SDS011;69505;52.134;5.438;2023-07-31T01:55:21;20.35;;;3.70;;
80179;SDS011;69505;52.134;5.438;2023-07-31T01:57:47;13.90;;;3.50;;
80179;SDS011;69505;52.134;5.438;2023-07-31T02:00:14;15.35;;;3.90;;
80179;SDS011;69505;52.134;5.438;2023-07-31T02:02:41;12.00;;;3.88;;
80179;SDS011;69505;52.134;5.438;2023-07-31T02:05:08;17.58;;;3.80;;
80179;SDS011;69505;52.134;5.438;2023-07-31T02:07:34;20.45;;;4.72;;
80179;SDS011;69505;52.134;5.438;2023-07-31T02:10:01;15.30;;;3.92;;
80179;SDS011;69505;52.134;5.438;2023-07-31T02:12:27;11.48;;;3.35;;
80179;SDS011;69505;52.134;5.438;2023-07-31T02:14:57;12.35;;;3.10;;
80179;SDS011;69505;52.134;5.438;2023-07-31T02:17:24;12.13;;;3.13;;
80179;SDS011;69505;52.134;5.438;2023-07-31T02:19:50;10.07;;;3.13;;
80179;SDS011;69505;52.134;5.438;2023-07-31T02:22:17;10.98;;;3.33;;
80179;SDS011;69505;52.134;5.438;2023-07-31T02:24:44;10.00;;;3.42;;
80179;SDS011;69505;52.134;5.438;2023-07-31T02:27:11;10.75;;;3.00;;
80179;SDS011;69505;52.134;5.438;2023-07-31T02:29:37;13.98;;;3.17;;
80179;SDS011;69505;52.134;5.438;2023-07-31T02:32:04;16.13;;;3.65;;
80179;SDS011;69505;52.134;5.438;2023-07-31T02:34:31;10.45;;;3.20;;
80179;SDS011;69505;52.134;5.438;2023-07-31T02:36:57;13.85;;;3.38;;
80179;SDS011;69505;52.134;5.438;2023-07-31T02:39:24;17.42;;;3.30;;
80179;SDS011;69505;52.134;5.438;2023-07-31T02:41:50;12.30;;;3.58;;
80179;SDS011;69505;52.134;5.438;2023-07-31T02:44:17;15.85;;;3.35;;
80179;SDS011;69505;52.134;5.438;2023-07-31T02:46:43;16.90;;;4.30;;
80179;SDS011;69505;52.134;5.438;2023-07-31T02:49:10;17.30;;;3.72;;
80179;SDS011;69505;52.134;5.438;2023-07-31T02:51:36;15.50;;;3.95;;
80179;SDS011;69505;52.134;5.438;2023-07-31T02:54:03;11.90;;;2.83;;
80179;SDS011;69505;52.134;5.438;2023-07-31T02:56:29;13.30;;;3.60;;
80179;SDS011;69505;52.134;5.438;2023-07-31T02:58:56;10.40;;;3.33;;
80179;SDS011;69505;52.134;5.438;2023-07-31T03:01:23;10.57;;;3.45;;
80179;SDS011;69505;52.134;5.438;2023-07-31T03:03:49;13.63;;;3.45;;
80179;SDS011;69505;52.134;5.438;2023-07-31T03:06:16;16.52;;;3.05;;
80179;SDS011;69505;52.134;5.438;2023-07-31T03:08:43;15.93;;;3.40;;
80179;SDS011;69505;52.134;5.438;2023-07-31T03:11:09;11.80;;;3.40;;
80179;SDS011;69505;52.134;5.438;2023-07-31T03:13:36;13.68;;;4.03;;
80179;SDS011;69505;52.134;5.438;2023-07-31T03:16:02;16.73;;;3.63;;
80179;SDS011;69505;52.134;5.438;2023-07-31T03:18:29;19.65;;;4.38;;
80179;SDS011;69505;52.134;5.438;2023-07-31T03:20:56;13.45;;;4.88;;
80179;SDS011;69505;52.134;5.438;2023-07-31T03:23:22;12.77;;;3.63;;
80179;SDS011;69505;52.134;5.438;2023-07-31T03:25:59;18.38;;;4.22;;
80179;SDS011;69505;52.134;5.438;2023-07-31T03:28:26;15.82;;;3.72;;
80179;SDS011;69505;52.134;5.438;2023-07-31T03:30:53;12.90;;;3.92;;
80179;SDS011;69505;52.134;5.438;2023-07-31T03:33:20;14.77;;;4.40;;
80179;SDS011;69505;52.134;5.438;2023-07-31T03:35:46;18.85;;;4.45;;
80179;SDS011;69505;52.134;5.438;2023-07-31T03:38:13;19.20;;;4.43;;
80179;SDS011;69505;52.134;5.438;2023-07-31T03:40:40;15.95;;;4.90;;
80179;SDS011;69505;52.134;5.438;2023-07-31T03:43:06;19.45;;;4.15;;
80179;SDS011;69505;52.134;5.438;2023-07-31T03:45:33;22.80;;;5.00;;
80179;SDS011;69505;52.134;5.438;2023-07-31T03:47:59;16.85;;;4.97;;
80179;SDS011;69505;52.134;5.438;2023-07-31T03:50:26;21.33;;;4.05;;
80179;SDS011;69505;52.134;5.438;2023-07-31T03:52:53;12.32;;;4.07;;
80179;SDS011;69505;52.134;5.438;2023-07-31T03:55:19;16.52;;;4.28;;
80179;SDS011;69505;52.134;5.438;2023-07-31T03:57:47;16.00;;;4.32;;
80179;SDS011;69505;52.134;5.438;2023-07-31T04:00:14;16.48;;;4.55;;
80179;SDS011;69505;52.134;5.438;2023-07-31T04:02:41;14.88;;;3.75;;
80179;SDS011;69505;52.134;5.438;2023-07-31T04:05:07;18.67;;;4.10;;
80179;SDS011;69505;52.134;5.438;2023-07-31T04:07:34;15.32;;;4.25;;
80179;SDS011;69505;52.134;5.438;2023-07-31T04:10:01;17.10;;;4.47;;
80179;SDS011;69505;52.134;5.438;2023-07-31T04:12:27;19.73;;;4.50;;
80179;SDS011;69505;52.134;5.438;2023-07-31T04:14:54;12.32;;;3.80;;
80179;SDS011;69505;52.134;5.438;2023-07-31T04:17:20;16.00;;;4.75;;
80179;SDS011;69505;52.134;5.438;2023-07-31T04:19:47;13.63;;;4.15;;
80179;SDS011;69505;52.134;5.438;2023-07-31T04:22:13;15.90;;;4.03;;
80179;SDS011;69505;52.134;5.438;2023-07-31T04:24:40;15.80;;;4.50;;
80179;SDS011;69505;52.134;5.438;2023-07-31T04:27:06;19.20;;;4.68;;
80179;SDS011;69505;52.134;5.438;2023-07-31T04:29:33;18.17;;;4.97;;
80179;SDS011;69505;52.134;5.438;2023-07-31T04:32:00;13.80;;;3.67;;
80179;SDS011;69505;52.134;5.438;2023-07-31T04:34:26;17.35;;;4.45;;
80179;SDS011;69505;52.134;5.438;2023-07-31T04:36:53;17.98;;;4.25;;
80179;SDS011;69505;52.134;5.438;2023-07-31T04:39:19;14.75;;;4.32;;
80179;SDS011;69505;52.134;5.438;2023-07-31T04:41:46;12.95;;;4.57;;
80179;SDS011;69505;52.134;5.438;2023-07-31T04:44:12;12.18;;;4.15;;
80179;SDS011;69505;52.134;5.438;2023-07-31T04:46:39;12.95;;;4.25;;
80179;SDS011;69505;52.134;5.438;2023-07-31T04:49:06;14.90;;;4.13;;
80179;SDS011;69505;52.134;5.438;2023-07-31T04:51:33;15.50;;;4.25;;
80179;SDS011;69505;52.134;5.438;2023-07-31T04:53:59;12.45;;;3.97;;
80179;SDS011;69505;52.134;5.438;2023-07-31T04:56:26;11.45;;;3.58;;
80179;SDS011;69505;52.134;5.438;2023-07-31T04:58:52;18.73;;;3.97;;
80179;SDS011;69505;52.134;5.438;2023-07-31T05:01:19;12.30;;;3.80;;
80179;SDS011;69505;52.134;5.438;2023-07-31T05:03:46;17.92;;;4.45;;
80179;SDS011;69505;52.134;5.438;2023-07-31T05:06:12;12.48;;;4.25;;
80179;SDS011;69505;52.134;5.438;2023-07-31T05:11:08;10.73;;;3.70;;
80179;SDS011;69505;52.134;5.438;2023-07-31T05:13:34;14.25;;;4.00;;
80179;SDS011;69505;52.134;5.438;2023-07-31T05:16:01;11.70;;;3.70;;
80179;SDS011;69505;52.134;5.438;2023-07-31T05:18:28;9.18;;;3.78;;
80179;SDS011;69505;52.134;5.438;2023-07-31T05:20:55;11.35;;;3.65;;
80179;SDS011;69505;52.134;5.438;2023-07-31T05:23:22;12.45;;;4.38;;
80179;SDS011;69505;52.134;5.438;2023-07-31T05:25:48;10.25;;;3.30;;
80179;SDS011;69505;52.134;5.438;2023-07-31T05:28:15;14.40;;;4.07;;
80179;SDS011;69505;52.134;5.438;2023-07-31T05:30:41;9.05;;;3.95;;
80179;SDS011;69505;52.134;5.438;2023-07-31T05:33:08;11.57;;;3.53;;
80179;SDS011;69505;52.134;5.438;2023-07-31T05:35:38;9.25;;;3.03;;
80179;SDS011;69505;52.134;5.438;2023-07-31T05:38:05;6.38;;;2.42;;
80179;SDS011;69505;52.134;5.438;2023-07-31T05:40:32;8.30;;;2.95;;
80179;SDS011;69505;52.134;5.438;2023-07-31T05:42:59;7.90;;;2.65;;
80179;SDS011;69505;52.134;5.438;2023-07-31T05:45:26;9.60;;;2.53;;
80179;SDS011;69505;52.134;5.438;2023-07-31T05:47:53;8.05;;;2.40;;
80179;SDS011;69505;52.134;5.438;2023-07-31T05:50:19;5.32;;;2.03;;
80179;SDS011;69505;52.134;5.438;2023-07-31T05:52:46;5.43;;;1.90;;
80179;SDS011;69505;52.134;5.438;2023-07-31T05:55:12;5.07;;;2.25;;
80179;SDS011;69505;52.134;5.438;2023-07-31T05:57:39;9.88;;;2.20;;
80179;SDS011;69505;52.134;5.438;2023-07-31T06:00:06;9.70;;;3.10;;
80179;SDS011;69505;52.134;5.438;2023-07-31T06:02:33;7.07;;;2.75;;
80179;SDS011;69505;52.134;5.438;2023-07-31T06:05:03;4.97;;;2.22;;
80179;SDS011;69505;52.134;5.438;2023-07-31T06:07:32;6.95;;;2.53;;
80179;SDS011;69505;52.134;5.438;2023-07-31T06:09:58;6.32;;;2.60;;
80179;SDS011;69505;52.134;5.438;2023-07-31T06:12:31;8.93;;;3.05;;
80179;SDS011;69505;52.134;5.438;2023-07-31T06:14:58;6.80;;;2.63;;
80179;SDS011;69505;52.134;5.438;2023-07-31T06:17:25;8.20;;;3.13;;
80179;SDS011;69505;52.134;5.438;2023-07-31T06:19:52;7.15;;;2.60;;
80179;SDS011;69505;52.134;5.438;2023-07-31T06:22:19;11.50;;;3.67;;
80179;SDS011;69505;52.134;5.438;2023-07-31T06:24:46;8.05;;;2.78;;
80179;SDS011;69505;52.134;5.438;2023-07-31T06:27:13;5.95;;;2.47;;
80179;SDS011;69505;52.134;5.438;2023-07-31T06:29:39;7.85;;;2.42;;
80179;SDS011;69505;52.134;5.438;2023-07-31T06:32:06;7.35;;;2.35;;
80179;SDS011;69505;52.134;5.438;2023-07-31T06:34:33;6.63;;;2.63;;
80179;SDS011;69505;52.134;5.438;2023-07-31T06:37:00;6.07;;;2.28;;
80179;SDS011;69505;52.134;5.438;2023-07-31T06:39:27;6.05;;;2.72;;
80179;SDS011;69505;52.134;5.438;2023-07-31T06:41:53;7.07;;;2.28;;
80179;SDS011;69505;52.134;5.438;2023-07-31T06:44:20;7.95;;;2.40;;
80179;SDS011;69505;52.134;5.438;2023-07-31T06:46:46;5.22;;;2.60;;
80179;SDS011;69505;52.134;5.438;2023-07-31T06:49:13;5.10;;;2.08;;
80179;SDS011;69505;52.134;5.438;2023-07-31T06:51:42;4.95;;;2.33;;
80179;SDS011;69505;52.134;5.438;2023-07-31T06:54:10;5.28;;;1.92;;
80179;SDS011;69505;52.134;5.438;2023-07-31T06:56:37;5.32;;;1.98;;
80179;SDS011;69505;52.134;5.438;2023-07-31T06:59:06;4.65;;;1.83;;
80179;SDS011;69505;52.134;5.438;2023-07-31T07:01:33;6.07;;;2.20;;
80179;SDS011;69505;52.134;5.438;2023-07-31T07:03:59;7.35;;;2.65;;
80179;SDS011;69505;52.134;5.438;2023-07-31T07:06:26;5.47;;;1.83;;
80179;SDS011;69505;52.134;5.438;2023-07-31T07:08:53;5.30;;;1.92;;
80179;SDS011;69505;52.134;5.438;2023-07-31T07:11:19;4.63;;;2.20;;
80179;SDS011;69505;52.134;5.438;2023-07-31T07:13:46;5.78;;;1.90;;
80179;SDS011;69505;52.134;5.438;2023-07-31T07:16:12;3.42;;;1.75;;
80179;SDS011;69505;52.134;5.438;2023-07-31T07:18:39;4.50;;;1.98;;
80179;SDS011;69505;52.134;5.438;2023-07-31T07:21:19;4.45;;;1.77;;
80179;SDS011;69505;52.134;5.438;2023-07-31T07:23:46;4.50;;;2.08;;
80179;SDS011;69505;52.134;5.438;2023-07-31T07:26:12;4.40;;;1.95;;
80179;SDS011;69505;52.134;5.438;2023-07-31T07:28:39;3.95;;;1.75;;
80179;SDS011;69505;52.134;5.438;2023-07-31T07:31:06;4.45;;;1.98;;
80179;SDS011;69505;52.134;5.438;2023-07-31T07:33:32;5.10;;;1.70;;
80179;SDS011;69505;52.134;5.438;2023-07-31T07:36:00;4.70;;;1.95;;
80179;SDS011;69505;52.134;5.438;2023-07-31T07:38:28;5.97;;;2.05;;
80179;SDS011;69505;52.134;5.438;2023-07-31T07:40:54;5.57;;;2.10;;
80179;SDS011;69505;52.134;5.438;2023-07-31T07:43:21;3.30;;;1.90;;
80179;SDS011;69505;52.134;5.438;2023-07-31T07:45:47;4.90;;;2.22;;
80179;SDS011;69505;52.134;5.438;2023-07-31T07:48:14;4.50;;;2.13;;
80179;SDS011;69505;52.134;5.438;2023-07-31T07:50:41;6.10;;;2.05;;
80179;SDS011;69505;52.134;5.438;2023-07-31T07:53:07;4.90;;;2.05;;
80179;SDS011;69505;52.134;5.438;2023-07-31T07:55:35;3.50;;;2.03;;
80179;SDS011;69505;52.134;5.438;2023-07-31T07:58:01;3.72;;;2.15;;
80179;SDS011;69505;52.134;5.438;2023-07-31T08:00:28;4.32;;;1.75;;
80179;SDS011;69505;52.134;5.438;2023-07-31T08:02:55;4.25;;;1.98;;
80179;SDS011;69505;52.134;5.438;2023-07-31T08:05:23;3.78;;;1.83;;
80179;SDS011;69505;52.134;5.438;2023-07-31T08:07:50;3.30;;;1.83;;
80179;SDS011;69505;52.134;5.438;2023-07-31T08:10:17;3.15;;;1.63;;
80179;SDS011;69505;52.134;5.438;2023-07-31T08:12:43;3.03;;;1.23;;
80179;SDS011;69505;52.134;5.438;2023-07-31T08:15:10;3.92;;;1.42;;
80179;SDS011;69505;52.134;5.438;2023-07-31T08:17:36;2.83;;;1.48;;
80179;SDS011;69505;52.134;5.438;2023-07-31T08:20:03;4.28;;;1.25;;
80179;SDS011;69505;52.134;5.438;2023-07-31T08:22:31;3.60;;;1.23;;
80179;SDS011;69505;52.134;5.438;2023-07-31T08:24:57;3.28;;;1.45;;
80179;SDS011;69505;52.134;5.438;2023-07-31T08:27:24;2.28;;;1.23;;
80179;SDS011;69505;52.134;5.438;2023-07-31T08:29:51;4.10;;;2.10;;
80179;SDS011;69505;52.134;5.438;2023-07-31T08:32:18;2.65;;;1.50;;
80179;SDS011;69505;52.134;5.438;2023-07-31T08:34:45;2.58;;;1.13;;
80179;SDS011;69505;52.134;5.438;2023-07-31T08:37:12;3.08;;;1.00;;
80179;SDS011;69505;52.134;5.438;2023-07-31T08:39:38;1.92;;;0.77;;
80179;SDS011;69505;52.134;5.438;2023-07-31T08:42:09;1.83;;;0.93;;
80179;SDS011;69505;52.134;5.438;2023-07-31T08:44:35;2.33;;;1.13;;
80179;SDS011;69505;52.134;5.438;2023-07-31T08:47:03;2.42;;;1.02;;
80179;SDS011;69505;52.134;5.438;2023-07-31T08:49:30;3.05;;;1.10;;
80179;SDS011;69505;52.134;5.438;2023-07-31T08:51:59;1.52;;;0.88;;
80179;SDS011;69505;52.134;5.438;2023-07-31T08:54:26;2.28;;;0.80;;
80179;SDS011;69505;52.134;5.438;2023-07-31T08:56:57;3.95;;;1.20;;
80179;SDS011;69505;52.134;5.438;2023-07-31T09:01:57;2.28;;;0.85;;
80179;SDS011;69505;52.134;5.438;2023-07-31T09:04:29;1.83;;;0.80;;
80179;SDS011;69505;52.134;5.438;2023-07-31T09:06:59;2.60;;;1.05;;
80179;SDS011;69505;52.134;5.438;2023-07-31T09:09:28;2.72;;;1.00;;
80179;SDS011;69505;52.134;5.438;2023-07-31T09:11:54;1.63;;;0.93;;
80179;SDS011;69505;52.134;5.438;2023-07-31T09:14:22;2.42;;;1.20;;
80179;SDS011;69505;52.134;5.438;2023-07-31T09:22:00;1.80;;;1.10;;
80179;SDS011;69505;52.134;5.438;2023-07-31T09:24:28;1.70;;;0.98;;
80179;SDS011;69505;52.134;5.438;2023-07-31T09:26:57;2.88;;;0.93;;
80179;SDS011;69505;52.134;5.438;2023-07-31T09:29:25;2.65;;;1.08;;
80179;SDS011;69505;52.134;5.438;2023-07-31T09:31:53;1.63;;;0.93;;
80179;SDS011;69505;52.134;5.438;2023-07-31T09:34:28;2.92;;;1.40;;
80179;SDS011;69505;52.134;5.438;2023-07-31T09:39:27;2.00;;;1.02;;
80179;SDS011;69505;52.134;5.438;2023-07-31T09:41:54;3.45;;;1.23;;
80179;SDS011;69505;52.134;5.438;2023-07-31T09:44:25;5.25;;;1.30;;
80179;SDS011;69505;52.134;5.438;2023-07-31T09:47:04;3.03;;;1.40;;
80179;SDS011;69505;52.134;5.438;2023-07-31T09:49:30;2.42;;;1.20;;
80179;SDS011;69505;52.134;5.438;2023-07-31T09:51:57;2.20;;;1.27;;
80179;SDS011;69505;52.134;5.438;2023-07-31T09:54:23;2.10;;;1.38;;
80179;SDS011;69505;52.134;5.438;2023-07-31T09:56:50;2.10;;;1.17;;
80179;SDS011;69505;52.134;5.438;2023-07-31T09:59:17;3.05;;;1.13;;
80179;SDS011;69505;52.134;5.438;2023-07-31T10:01:49;2.40;;;1.35;;
80179;SDS011;69505;52.134;5.438;2023-07-31T10:04:16;2.47;;;1.23;;
80179;SDS011;69505;52.134;5.438;2023-07-31T10:06:46;2.35;;;1.30;;
80179;SDS011;69505;52.134;5.438;2023-07-31T10:09:16;2.45;;;1.27;;
80179;SDS011;69505;52.134;5.438;2023-07-31T10:11:46;2.90;;;1.60;;
80179;SDS011;69505;52.134;5.438;2023-07-31T10:14:18;2.10;;;1.33;;
80179;SDS011;69505;52.134;5.438;2023-07-31T10:16:46;2.83;;;1.13;;
80179;SDS011;69505;52.134;5.438;2023-07-31T10:19:13;5.20;;;1.42;;
80179;SDS011;69505;52.134;5.438;2023-07-31T10:21:41;3.42;;;1.63;;
80179;SDS011;69505;52.134;5.438;2023-07-31T10:24:08;3.20;;;1.80;;
80179;SDS011;69505;52.134;5.438;2023-07-31T10:26:35;3.35;;;1.83;;
80179;SDS011;69505;52.134;5.438;2023-07-31T10:29:05;3.65;;;1.88;;
80179;SDS011;69505;52.134;5.438;2023-07-31T10:31:32;3.40;;;2.00;;
80179;SDS011;69505;52.134;5.438;2023-07-31T10:34:01;4.20;;;2.28;;
80179;SDS011;69505;52.134;5.438;2023-07-31T10:36:29;3.35;;;2.08;;
80179;SDS011;69505;52.134;5.438;2023-07-31T10:38:56;5.57;;;2.55;;
80179;SDS011;69505;52.134;5.438;2023-07-31T10:41:31;3.80;;;2.03;;
80179;SDS011;69505;52.134;5.438;2023-07-31T10:43:59;4.82;;;2.17;;
80179;SDS011;69505;52.134;5.438;2023-07-31T10:46:30;6.75;;;2.40;;
80179;SDS011;69505;52.134;5.438;2023-07-31T10:48:57;5.35;;;2.50;;
80179;SDS011;69505;52.134;5.438;2023-07-31T10:51:32;3.75;;;2.38;;
80179;SDS011;69505;52.134;5.438;2023-07-31T10:54:13;6.80;;;2.38;;
80179;SDS011;69505;52.134;5.438;2023-07-31T10:59:13;5.38;;;2.20;;
80179;SDS011;69505;52.134;5.438;2023-07-31T11:01:49;5.63;;;2.17;;
80179;SDS011;69505;52.134;5.438;2023-07-31T11:06:55;4.15;;;1.80;;
80179;SDS011;69505;52.134;5.438;2023-07-31T11:09:29;4.32;;;2.22;;
80179;SDS011;69505;52.134;5.438;2023-07-31T11:11:59;2.80;;;1.67;;
80179;SDS011;69505;52.134;5.438;2023-07-31T11:14:26;3.22;;;1.88;;
80179;SDS011;69505;52.134;5.438;2023-07-31T11:16:53;2.70;;;1.70;;
80179;SDS011;69505;52.134;5.438;2023-07-31T11:19:25;3.05;;;1.52;;
80179;SDS011;69505;52.134;5.438;2023-07-31T11:21:52;2.70;;;1.30;;
80179;SDS011;69505;52.134;5.438;2023-07-31T11:24:19;2.35;;;1.30;;
80179;SDS011;69505;52.134;5.438;2023-07-31T11:26:52;2.25;;;1.33;;
80179;SDS011;69505;52.134;5.438;2023-07-31T11:29:20;3.15;;;1.15;;
80179;SDS011;69505;52.134;5.438;2023-07-31T11:31:47;3.80;;;1.20;;
80179;SDS011;69505;52.134;5.438;2023-07-31T11:34:15;3.03;;;1.42;;
80179;SDS011;69505;52.134;5.438;2023-07-31T11:36:52;2.17;;;1.20;;
80179;SDS011;69505;52.134;5.438;2023-07-31T11:39:25;1.95;;;0.95;;
80179;SDS011;69505;52.134;5.438;2023-07-31T11:41:58;2.38;;;1.15;;
80179;SDS011;69505;52.134;5.438;2023-07-31T11:44:25;2.13;;;1.33;;
80179;SDS011;69505;52.134;5.438;2023-07-31T11:46:56;1.95;;;1.10;;
80179;SDS011;69505;52.134;5.438;2023-07-31T11:49:23;3.35;;;1.95;;
80179;SDS011;69505;52.134;5.438;2023-07-31T11:51:49;2.35;;;1.17;;
80179;SDS011;69505;52.134;5.438;2023-07-31T11:54:16;3.10;;;1.42;;
80179;SDS011;69505;52.134;5.438;2023-07-31T11:56:43;2.10;;;1.10;;
80179;SDS011;69505;52.134;5.438;2023-07-31T11:59:10;2.63;;;1.40;;
80179;SDS011;69505;52.134;5.438;2023-07-31T12:01:39;2.47;;;1.63;;
80179;SDS011;69505;52.134;5.438;2023-07-31T12:04:05;3.50;;;2.00;;
80179;SDS011;69505;52.134;5.438;2023-07-31T12:06:36;4.93;;;1.75;;
80179;SDS011;69505;52.134;5.438;2023-07-31T12:09:04;2.97;;;2.10;;
80179;SDS011;69505;52.134;5.438;2023-07-31T12:11:41;3.10;;;2.00;;
80179;SDS011;69505;52.134;5.438;2023-07-31T12:14:18;3.00;;;2.17;;
80179;SDS011;69505;52.134;5.438;2023-07-31T12:16:46;2.85;;;2.03;;
80179;SDS011;69505;52.134;5.438;2023-07-31T12:19:12;3.50;;;2.25;;
80179;SDS011;69505;52.134;5.438;2023-07-31T12:21:39;3.95;;;1.90;;
80179;SDS011;69505;52.134;5.438;2023-07-31T12:24:06;5.07;;;2.25;;
80179;SDS011;69505;52.134;5.438;2023-07-31T12:26:35;2.47;;;1.80;;
80179;SDS011;69505;52.134;5.438;2023-07-31T12:29:04;3.95;;;1.75;;
80179;SDS011;69505;52.134;5.438;2023-07-31T12:31:34;4.25;;;1.58;;
80179;SDS011;69505;52.134;5.438;2023-07-31T12:34:00;2.35;;;1.45;;
80179;SDS011;69505;52.134;5.438;2023-07-31T12:36:28;3.63;;;1.40;;
80179;SDS011;69505;52.134;5.438;2023-07-31T12:38:58;2.15;;;1.42;;
80179;SDS011;69505;52.134;5.438;2023-07-31T12:41:25;2.60;;;1.42;;
80179;SDS011;69505;52.134;5.438;2023-07-31T12:43:52;2.33;;;1.45;;
80179;SDS011;69505;52.134;5.438;2023-07-31T12:46:20;3.45;;;1.40;;
80179;SDS011;69505;52.134;5.438;2023-07-31T12:48:47;2.58;;;1.50;;
80179;SDS011;69505;52.134;5.438;2023-07-31T12:51:13;3.13;;;1.80;;
80179;SDS011;69505;52.134;5.438;2023-07-31T12:53:40;2.95;;;1.70;;
80179;SDS011;69505;52.134;5.438;2023-07-31T12:56:06;3.70;;;1.75;;
80179;SDS011;69505;52.134;5.438;2023-07-31T12:58:33;4.15;;;1.80;;
80179;SDS011;69505;52.134;5.438;2023-07-31T13:01:00;2.92;;;2.08;;
80179;SDS011;69505;52.134;5.438;2023-07-31T13:03:28;3.92;;;2.25;;
80179;SDS011;69505;52.134;5.438;2023-07-31T13:05:55;3.33;;;1.90;;
80179;SDS011;69505;52.134;5.438;2023-07-31T13:08:21;3.03;;;1.67;;
80179;SDS011;69505;52.134;5.438;2023-07-31T13:10:48;4.45;;;1.85;;
80179;SDS011;69505;52.134;5.438;2023-07-31T13:13:15;2.60;;;1.70;;
80179;SDS011;69505;52.134;5.438;2023-07-31T13:15:43;3.70;;;2.05;;
80179;SDS011;69505;52.134;5.438;2023-07-31T13:18:10;3.72;;;2.00;;
80179;SDS011;69505;52.134;5.438;2023-07-31T13:20:36;3.33;;;2.20;;
80179;SDS011;69505;52.134;5.438;2023-07-31T13:23:03;3.55;;;2.50;;
80179;SDS011;69505;52.134;5.438;2023-07-31T13:25:30;4.30;;;2.00;;
80179;SDS011;69505;52.134;5.438;2023-07-31T13:27:56;3.92;;;1.80;;
80179;SDS011;69505;52.134;5.438;2023-07-31T13:30:27;4.28;;;2.13;;
80179;SDS011;69505;52.134;5.438;2023-07-31T13:32:53;3.85;;;2.15;;
80179;SDS011;69505;52.134;5.438;2023-07-31T13:35:20;3.47;;;2.08;;
80179;SDS011;69505;52.134;5.438;2023-07-31T13:37:47;3.53;;;2.08;;
80179;SDS011;69505;52.134;5.438;2023-07-31T13:40:13;6.95;;;2.33;;
80179;SDS011;69505;52.134;5.438;2023-07-31T13:42:40;2.80;;;1.98;;
80179;SDS011;69505;52.134;5.438;2023-07-31T13:45:07;4.20;;;1.30;;
80179;SDS011;69505;52.134;5.438;2023-07-31T13:47:33;2.10;;;1.25;;
80179;SDS011;69505;52.134;5.438;2023-07-31T13:50:01;4.55;;;1.27;;
80179;SDS011;69505;52.134;5.438;2023-07-31T13:52:28;2.05;;;1.33;;
80179;SDS011;69505;52.134;5.438;2023-07-31T13:54:54;2.42;;;0.85;;
80179;SDS011;69505;52.134;5.438;2023-07-31T13:57:21;3.75;;;1.10;;
80179;SDS011;69505;52.134;5.438;2023-07-31T13:59:47;2.53;;;1.20;;
80179;SDS011;69505;52.134;5.438;2023-07-31T14:02:14;3.15;;;1.40;;
80179;SDS011;69505;52.134;5.438;2023-07-31T14:04:41;2.78;;;2.00;;
80179;SDS011;69505;52.134;5.438;2023-07-31T14:07:08;2.15;;;1.10;;
80179;SDS011;69505;52.134;5.438;2023-07-31T14:09:34;1.60;;;0.73;;
80179;SDS011;69505;52.134;5.438;2023-07-31T14:12:01;1.40;;;0.85;;
80179;SDS011;69505;52.134;5.438;2023-07-31T14:14:28;4.32;;;1.20;;
80179;SDS011;69505;52.134;5.438;2023-07-31T14:16:55;2.30;;;0.93;;
80179;SDS011;69505;52.134;5.438;2023-07-31T14:19:21;1.85;;;1.23;;
80179;SDS011;69505;52.134;5.438;2023-07-31T14:21:48;2.63;;;1.40;;
80179;SDS011;69505;52.134;5.438;2023-07-31T14:24:35;3.08;;;2.20;;
80179;SDS011;69505;52.134;5.438;2023-07-31T14:27:02;3.67;;;3.10;;
80179;SDS011;69505;52.134;5.438;2023-07-31T14:29:29;4.78;;;3.22;;
80179;SDS011;69505;52.134;5.438;2023-07-31T14:31:56;5.28;;;3.72;;
80179;SDS011;69505;52.134;5.438;2023-07-31T14:34:23;4.57;;;3.45;;
80179;SDS011;69505;52.134;5.438;2023-07-31T14:36:49;4.50;;;3.45;;
80179;SDS011;69505;52.134;5.438;2023-07-31T14:39:16;5.30;;;3.70;;
80179;SDS011;69505;52.134;5.438;2023-07-31T14:41:43;5.95;;;3.70;;
80179;SDS011;69505;52.134;5.438;2023-07-31T14:44:09;5.00;;;3.60;;
80179;SDS011;69505;52.134;5.438;2023-07-31T14:46:36;4.85;;;3.70;;
80179;SDS011;69505;52.134;5.438;2023-07-31T14:49:03;5.75;;;3.50;;
80179;SDS011;69505;52.134;5.438;2023-07-31T14:51:30;5.88;;;3.40;;
80179;SDS011;69505;52.134;5.438;2023-07-31T14:53:56;4.63;;;3.40;;
80179;SDS011;69505;52.134;5.438;2023-07-31T14:56:23;5.32;;;3.35;;
80179;SDS011;69505;52.134;5.438;2023-07-31T14:58:49;5.07;;;3.60;;
80179;SDS011;69505;52.134;5.438;2023-07-31T15:01:16;6.03;;;3.17;;
80179;SDS011;69505;52.134;5.438;2023-07-31T15:03:42;6.15;;;3.95;;
80179;SDS011;69505;52.134;5.438;2023-07-31T15:06:09;5.45;;;3.08;;
80179;SDS011;69505;52.134;5.438;2023-07-31T15:08:36;3.92;;;2.20;;
80179;SDS011;69505;52.134;5.438;2023-07-31T15:11:02;3.00;;;2.10;;
80179;SDS011;69505;52.134;5.438;2023-07-31T15:13:29;2.97;;;2.28;;
80179;SDS011;69505;52.134;5.438;2023-07-31T15:15:56;3.85;;;2.72;;